Time;durP1;ratioP1;P1;durP2;ratioP2;P2;SDS_P1;SDS_P2;PMS_P1;PMS_P2;Temp;Humidity;BMP_temperature;BMP_pressure;BME280_temperature;BME280_humidity;BME280_pressure;Samples;Min_cycle;Max_cycle;Signal;HPM_P1;HPM_P2
2022/03/01 00:00:27;;;;;;;;;;;0.30;99.90;;;;;;5117459;28;20289;-45
2022/03/01 00:02:52;;;;;;;;;;;0.30;99.90;;;;;;5104291;28;20003;-40
2022/03/01 00:05:18;;;;;;;;;;;0.20;99.90;;;;;;5097066;28;19915;-41
2022/03/01 00:07:43;;;;;;;;;;;0.20;99.90;;;;;;5096941;28;19908;-40
2022/03/01 00:10:09;;;;;;;;;;;0.20;99.90;;;;;;5096943;28;19915;-41
2022/03/01 00:12:34;;;;;;;;;;;0.20;99.90;;;;;;5096802;28;20362;-43
2022/03/01 00:15:00;;;;;;;;;;;0.20;99.90;;;;;;5099128;28;20075;-41
2022/03/01 00:17:26;;;;;;;;;;;0.10;99.90;;;;;;5097065;28;19912;-46
2022/03/01 00:19:51;;;;;;;;;;;0.20;99.90;;;;;;5096517;28;19912;-46
2022/03/01 00:22:17;;;;;;;;;;;0.20;99.90;;;;;;5107993;28;20266;-42
2022/03/01 00:24:42;;;;;;;;;;;0.10;99.90;;;;;;5096922;28;20369;-41
2022/03/01 00:27:08;;;;;;;;;;;0.10;99.90;;;;;;5095715;28;19939;-47
2022/03/01 00:29:33;;;;;;;;;;;0.00;99.90;;;;;;5096614;28;19936;-43
2022/03/01 00:31:59;;;;;;;;;;;0.00;99.90;;;;;;5096261;28;19908;-42
2022/03/01 00:34:24;;;;;;;;;;;0.00;99.90;;;;;;5096117;28;19923;-41
2022/03/01 00:36:50;;;;;;;;;;;-0.10;99.90;;;;;;5085966;28;19992;-42
2022/03/01 00:39:15;;;;;;;;;;;0.00;99.90;;;;;;5087868;28;19952;-42
2022/03/01 00:41:41;;;;;;;;;;;0.00;99.90;;;;;;5096282;28;19911;-41
2022/03/01 00:44:06;;;;;;;;;;;0.00;99.90;;;;;;5113484;28;19923;-41
2022/03/01 00:46:32;;;;;;;;;;;0.00;99.90;;;;;;5098350;28;19908;-40
2022/03/01 00:48:58;;;;;;;;;;;-0.10;99.90;;;;;;5095677;28;19919;-40
2022/03/01 00:51:25;;;;;;;;;;;-0.10;99.90;;;;;;5113132;28;19907;-41
2022/03/01 00:53:50;;;;;;;;;;;-0.10;99.90;;;;;;5113044;28;20031;-40
2022/03/01 00:56:16;;;;;;;;;;;-0.10;99.90;;;;;;5096266;28;19957;-40
2022/03/01 00:58:41;;;;;;;;;;;-0.10;99.90;;;;;;5094566;28;19923;-43
2022/03/01 01:01:07;;;;;;;;;;;-0.10;99.90;;;;;;5110690;28;20346;-41
2022/03/01 01:03:33;;;;;;;;;;;-0.20;99.90;;;;;;5116004;28;19908;-41
2022/03/01 01:05:58;;;;;;;;;;;-0.20;99.90;;;;;;5096355;28;20403;-41
2022/03/01 01:08:24;;;;;;;;;;;-0.30;99.90;;;;;;5095780;28;19908;-41
2022/03/01 01:10:49;;;;;;;;;;;-0.20;99.90;;;;;;5095109;28;19920;-41
2022/03/01 01:13:15;;;;;;;;;;;-0.20;99.90;;;;;;5110543;28;20015;-41
2022/03/01 01:15:41;;;;;;;;;;;-0.30;99.90;;;;;;5114932;28;19912;-39
2022/03/01 01:18:07;;;;;;;;;;;-0.20;99.90;;;;;;5095358;28;19961;-41
2022/03/01 01:20:33;;;;;;;;;;;-0.30;99.90;;;;;;5105189;28;19912;-40
2022/03/01 01:22:58;;;;;;;;;;;-0.30;99.90;;;;;;5095469;28;19915;-40
2022/03/01 01:25:24;;;;;;;;;;;-0.30;99.90;;;;;;5095594;28;19908;-40
2022/03/01 01:27:51;;;;;;;;;;;-0.30;99.90;;;;;;5095456;28;19920;-40
2022/03/01 01:30:18;;;;;;;;;;;-0.30;99.90;;;;;;5095772;28;19912;-40
2022/03/01 01:32:44;;;;;;;;;;;-0.30;99.90;;;;;;5095594;28;19931;-40
2022/03/01 01:35:11;;;;;;;;;;;-0.30;99.90;;;;;;5095527;28;20355;-40
2022/03/01 01:37:37;;;;;;;;;;;-0.30;99.90;;;;;;5095509;28;19912;-41
2022/03/01 01:40:04;;;;;;;;;;;-0.40;99.90;;;;;;5095384;28;19909;-41
2022/03/01 01:42:29;;;;;;;;;;;-0.30;99.90;;;;;;5095042;28;19989;-41
2022/03/01 01:44:55;;;;;;;;;;;-0.40;99.90;;;;;;5095350;28;19912;-41
2022/03/01 01:47:20;;;;;;;;;;;-0.40;99.90;;;;;;5095245;28;20258;-41
2022/03/01 01:49:46;;;;;;;;;;;-0.40;99.90;;;;;;5094887;28;19996;-41
2022/03/01 01:52:12;;;;;;;;;;;-0.40;99.90;;;;;;5095229;28;20301;-41
2022/03/01 01:54:37;;;;;;;;;;;-0.50;99.90;;;;;;5095403;28;19912;-41
2022/03/01 01:57:12;;;;;;;;;;;-0.50;99.90;;;;;;5095058;28;20285;-40
2022/03/01 01:59:38;;;;;;;;;;;-0.50;99.90;;;;;;5095181;28;19915;-40
2022/03/01 02:02:03;;;;;;;;;;;-0.50;99.90;;;;;;5095037;28;19915;-41
2022/03/01 02:04:29;;;;;;;;;;;-0.50;99.90;;;;;;5094643;28;20312;-40
2022/03/01 02:06:55;;;;;;;;;;;-0.60;99.90;;;;;;5094439;28;19912;-40
2022/03/01 02:09:20;;;;;;;;;;;-0.60;99.90;;;;;;5094848;28;19908;-40
2022/03/01 02:11:46;;;;;;;;;;;-0.60;99.90;;;;;;5094383;28;19931;-40
2022/03/01 02:14:12;;;;;;;;;;;-0.70;99.90;;;;;;5093522;28;19999;-40
2022/03/01 02:16:38;;;;;;;;;;;-0.70;99.90;;;;;;5094459;28;20024;-40
2022/03/01 02:19:10;;;;;;;;;;;-0.70;99.90;;;;;;5094435;28;19922;-40
2022/03/01 02:21:36;;;;;;;;;;;-0.70;99.90;;;;;;5093331;28;19908;-40
2022/03/01 02:24:01;;;;;;;;;;;-0.70;99.90;;;;;;5093360;28;19915;-40
2022/03/01 02:26:27;;;;;;;;;;;-0.80;99.90;;;;;;5094569;28;19947;-40
2022/03/01 02:28:52;;;;;;;;;;;-0.90;99.90;;;;;;5094425;28;20007;-39
2022/03/01 02:31:18;;;;;;;;;;;-0.90;99.90;;;;;;5094208;28;19995;-40
2022/03/01 02:33:43;;;;;;;;;;;-0.90;99.90;;;;;;5093368;28;19908;-40
2022/03/01 02:36:09;;;;;;;;;;;-0.90;99.90;;;;;;5094112;28;19999;-40
2022/03/01 02:38:34;;;;;;;;;;;-0.90;99.90;;;;;;5094138;28;19943;-40
2022/03/01 02:41:00;;;;;;;;;;;-0.90;99.90;;;;;;5093989;28;19950;-40
2022/03/01 02:43:25;;;;;;;;;;;-1.00;99.90;;;;;;5094015;28;19915;-39
2022/03/01 02:45:51;;;;;;;;;;;-1.00;99.90;;;;;;5094301;28;19913;-40
2022/03/01 02:48:16;;;;;;;;;;;-1.00;99.90;;;;;;5094541;28;19958;-40
2022/03/01 02:50:42;;;;;;;;;;;-1.00;99.90;;;;;;5093002;28;19931;-39
2022/03/01 02:53:07;;;;;;;;;;;-1.00;99.90;;;;;;5094484;28;20266;-40
2022/03/01 02:55:33;;;;;;;;;;;-1.10;99.90;;;;;;5094111;28;20279;-41
2022/03/01 02:57:58;;;;;;;;;;;-1.00;99.90;;;;;;5093729;28;19912;-40
2022/03/01 03:00:24;;;;;;;;;;;-1.00;99.90;;;;;;5093312;28;19908;-40
2022/03/01 03:02:49;;;;;;;;;;;-1.10;99.90;;;;;;5094016;28;20430;-40
2022/03/01 03:05:15;;;;;;;;;;;-1.20;99.90;;;;;;5094054;28;19915;-41
2022/03/01 03:07:40;;;;;;;;;;;-1.20;99.90;;;;;;5093848;28;19908;-40
2022/03/01 03:10:07;;;;;;;;;;;-1.00;99.90;;;;;;5093748;28;20235;-40
2022/03/01 03:12:33;;;;;;;;;;;-1.10;99.90;;;;;;5094001;28;20347;-41
2022/03/01 03:14:59;;;;;;;;;;;-1.10;99.90;;;;;;5093971;28;20362;-41
2022/03/01 03:17:24;;;;;;;;;;;-1.10;99.90;;;;;;5093636;28;19959;-41
2022/03/01 03:19:50;;;;;;;;;;;-1.10;99.90;;;;;;5093945;28;19990;-40
2022/03/01 03:22:15;;;;;;;;;;;-1.10;99.90;;;;;;5093594;28;19959;-41
2022/03/01 03:24:41;;;;;;;;;;;-1.10;99.90;;;;;;5093937;28;19934;-40
2022/03/01 03:27:06;;;;;;;;;;;-1.20;99.90;;;;;;5093884;28;20354;-40
2022/03/01 03:29:32;;;;;;;;;;;-1.20;99.90;;;;;;5094025;28;19960;-41
2022/03/01 03:31:57;;;;;;;;;;;-1.20;99.90;;;;;;5093524;28;20351;-40
2022/03/01 03:34:23;;;;;;;;;;;-1.20;99.90;;;;;;5093478;28;19908;-41
2022/03/01 03:36:49;;;;;;;;;;;-1.20;99.90;;;;;;5093754;28;20012;-41
2022/03/01 03:39:15;;;;;;;;;;;-1.20;99.90;;;;;;5093584;28;20382;-40
2022/03/01 03:41:40;;;;;;;;;;;-1.20;99.90;;;;;;5093270;28;20002;-40
2022/03/01 03:44:06;;;;;;;;;;;-1.10;99.90;;;;;;5093229;28;19915;-40
2022/03/01 03:46:32;;;;;;;;;;;-1.20;99.90;;;;;;5093409;28;19908;-40
2022/03/01 03:48:57;;;;;;;;;;;-1.20;99.90;;;;;;5093655;28;19908;-40
2022/03/01 03:51:26;;;;;;;;;;;-1.30;99.90;;;;;;5093335;28;20367;-40
2022/03/01 03:53:52;;;;;;;;;;;-1.30;99.90;;;;;;5093656;28;19919;-40
2022/03/01 03:56:17;;;;;;;;;;;-1.30;99.90;;;;;;5093494;28;19912;-40
2022/03/01 03:58:43;;;;;;;;;;;-1.30;99.90;;;;;;5093246;28;19912;-40
2022/03/01 04:01:09;;;;;;;;;;;-1.30;99.90;;;;;;5093296;28;19912;-40
2022/03/01 04:03:34;;;;;;;;;;;-1.30;99.90;;;;;;5093212;28;19918;-40
2022/03/01 04:06:00;;;;;;;;;;;-1.30;99.90;;;;;;5093425;28;19953;-40
2022/03/01 04:08:25;;;;;;;;;;;-1.30;99.90;;;;;;5092115;28;19995;-40
2022/03/01 04:10:51;;;;;;;;;;;-1.30;99.90;;;;;;5092045;28;19951;-40
2022/03/01 04:13:16;;;;;;;;;;;-1.40;99.90;;;;;;5096119;28;19920;-41
2022/03/01 04:15:42;;;;;;;;;;;-1.40;99.90;;;;;;5096926;28;19919;-40
2022/03/01 04:18:08;;;;;;;;;;;-1.50;99.90;;;;;;5096888;28;19919;-40
2022/03/01 04:20:33;;;;;;;;;;;-1.40;99.90;;;;;;5096935;28;19914;-40
2022/03/01 04:22:59;;;;;;;;;;;-1.40;99.90;;;;;;5096919;28;19919;-41
2022/03/01 04:25:24;;;;;;;;;;;-1.40;99.90;;;;;;5096898;28;20262;-40
2022/03/01 04:27:50;;;;;;;;;;;-1.40;99.90;;;;;;5096436;28;19981;-40
2022/03/01 04:30:16;;;;;;;;;;;-1.50;99.90;;;;;;5096676;28;20373;-40
2022/03/01 04:32:42;;;;;;;;;;;-1.60;99.90;;;;;;5096304;28;19908;-40
2022/03/01 04:35:08;;;;;;;;;;;-1.50;99.90;;;;;;5096237;28;19939;-41
2022/03/01 04:37:35;;;;;;;;;;;-1.50;99.90;;;;;;5096488;28;20378;-40
2022/03/01 04:40:00;;;;;;;;;;;-1.50;99.90;;;;;;5096262;28;19908;-40
2022/03/01 04:42:26;;;;;;;;;;;-1.50;99.90;;;;;;5096535;28;19916;-40
2022/03/01 04:44:52;;;;;;;;;;;-1.50;99.90;;;;;;5095142;28;19935;-40
2022/03/01 04:47:17;;;;;;;;;;;-1.50;99.90;;;;;;5096245;28;20365;-41
2022/03/01 04:49:43;;;;;;;;;;;-1.50;99.90;;;;;;5095844;28;19908;-40
2022/03/01 04:52:08;;;;;;;;;;;-1.60;99.90;;;;;;5095735;28;20007;-41
2022/03/01 04:54:34;;;;;;;;;;;-1.60;99.90;;;;;;5096053;28;19908;-40
2022/03/01 04:56:59;;;;;;;;;;;-1.60;99.90;;;;;;5096038;28;19916;-41
2022/03/01 04:59:25;;;;;;;;;;;-1.70;99.90;;;;;;5096077;28;19919;-40
2022/03/01 05:01:50;;;;;;;;;;;-1.70;99.90;;;;;;5095755;28;19908;-40
2022/03/01 05:04:16;;;;;;;;;;;-1.80;99.90;;;;;;5095995;28;20262;-40
2022/03/01 05:06:42;;;;;;;;;;;-1.80;99.90;;;;;;5094319;28;20021;-40
2022/03/01 05:09:07;;;;;;;;;;;-1.70;99.90;;;;;;5095928;28;19908;-40
2022/03/01 05:11:33;;;;;;;;;;;-1.70;99.90;;;;;;5095502;28;19977;-41
2022/03/01 05:13:59;;;;;;;;;;;-1.70;99.90;;;;;;5095794;28;19908;-41
2022/03/01 05:16:25;;;;;;;;;;;-1.70;99.90;;;;;;5095605;28;19938;-40
2022/03/01 05:18:50;;;;;;;;;;;-1.70;99.90;;;;;;5095608;28;19924;-40
2022/03/01 05:21:16;;;;;;;;;;;-1.70;99.90;;;;;;5095681;28;19908;-40
2022/03/01 05:23:41;;;;;;;;;;;-1.80;99.90;;;;;;5094749;28;19915;-40
2022/03/01 05:26:07;;;;;;;;;;;-1.70;99.90;;;;;;5095536;28;20255;-39
2022/03/01 05:28:32;;;;;;;;;;;-1.70;99.90;;;;;;5095428;28;19927;-40
2022/03/01 05:30:58;;;;;;;;;;;-1.70;99.90;;;;;;5093335;28;19923;-40
2022/03/01 05:33:23;;;;;;;;;;;-1.70;99.90;;;;;;5104361;28;19915;-40
2022/03/01 05:35:49;;;;;;;;;;;-1.70;99.90;;;;;;5114317;28;19912;-40
2022/03/01 05:38:14;;;;;;;;;;;-1.70;99.90;;;;;;5099645;28;20275;-40
2022/03/01 05:40:41;;;;;;;;;;;-1.70;99.90;;;;;;5093830;28;21328;-40
2022/03/01 05:43:08;;;;;;;;;;;-1.70;99.90;;;;;;5114238;28;19912;-40
2022/03/01 05:45:34;;;;;;;;;;;-1.80;99.90;;;;;;5103508;28;19912;-42
2022/03/01 05:48:00;;;;;;;;;;;-1.80;99.90;;;;;;5093741;28;19977;-41
2022/03/01 05:50:26;;;;;;;;;;;-1.70;99.90;;;;;;5093590;28;19919;-40
2022/03/01 05:52:52;;;;;;;;;;;-1.70;99.90;;;;;;5094782;28;19920;-41
2022/03/01 05:55:18;;;;;;;;;;;-1.70;99.90;;;;;;5094957;28;20010;-40
2022/03/01 05:57:43;;;;;;;;;;;-1.80;99.90;;;;;;5093396;28;20351;-41
2022/03/01 06:00:12;;;;;;;;;;;-1.80;99.90;;;;;;5097135;28;19919;-40
2022/03/01 06:02:37;;;;;;;;;;;-1.80;99.90;;;;;;5103258;28;19912;-41
2022/03/01 06:05:03;;;;;;;;;;;-1.80;99.90;;;;;;5114857;28;20322;-40
2022/03/01 06:07:29;;;;;;;;;;;-1.80;99.90;;;;;;5114525;28;19956;-41
2022/03/01 06:09:54;;;;;;;;;;;-1.70;99.90;;;;;;5110563;28;19916;-41
2022/03/01 06:12:20;;;;;;;;;;;-1.60;99.90;;;;;;5094455;28;19999;-41
2022/03/01 06:14:45;;;;;;;;;;;-1.60;99.90;;;;;;5094250;28;20262;-41
2022/03/01 06:17:11;;;;;;;;;;;-1.60;99.90;;;;;;5093809;28;19912;-40
2022/03/01 06:19:37;;;;;;;;;;;-1.60;99.90;;;;;;5094585;28;19912;-39
2022/03/01 06:22:04;;;;;;;;;;;-1.60;99.90;;;;;;5094391;28;19908;-41
2022/03/01 06:24:30;;;;;;;;;;;-1.50;99.90;;;;;;5091523;28;19943;-41
2022/03/01 06:26:55;;;;;;;;;;;-1.50;99.90;;;;;;5092021;28;20339;-40
2022/03/01 06:29:21;;;;;;;;;;;-1.50;99.90;;;;;;5089541;28;19927;-40
2022/03/01 06:31:46;;;;;;;;;;;-1.40;99.90;;;;;;5093482;28;19912;-41
2022/03/01 06:34:12;;;;;;;;;;;-1.40;99.90;;;;;;5094154;28;19931;-40
2022/03/01 06:36:37;;;;;;;;;;;-1.40;99.90;;;;;;5092285;28;19948;-41
2022/03/01 06:39:03;;;;;;;;;;;-1.30;99.90;;;;;;5094022;28;19954;-41
2022/03/01 06:41:28;;;;;;;;;;;-1.20;99.90;;;;;;5093944;28;20046;-42
2022/03/01 06:43:54;;;;;;;;;;;-1.00;99.90;;;;;;5093720;28;19912;-41
2022/03/01 06:46:20;;;;;;;;;;;-0.90;99.90;;;;;;5093819;28;20311;-42
2022/03/01 06:48:46;;;;;;;;;;;-0.90;99.90;;;;;;5093230;28;19914;-41
2022/03/01 06:51:12;;;;;;;;;;;-0.70;99.90;;;;;;5093757;28;19908;-41
2022/03/01 06:53:37;;;;;;;;;;;-0.60;99.90;;;;;;5093470;28;19908;-41
2022/03/01 06:56:03;;;;;;;;;;;-0.50;99.90;;;;;;5093604;28;19958;-41
2022/03/01 06:58:29;;;;;;;;;;;-0.40;99.90;;;;;;5088606;28;20004;-41
2022/03/01 07:00:56;;;;;;;;;;;-0.40;99.90;;;;;;5093455;28;20048;-41
2022/03/01 07:03:22;;;;;;;;;;;-0.30;99.90;;;;;;5092364;28;20292;-41
2022/03/01 07:05:47;;;;;;;;;;;-0.10;99.90;;;;;;5093389;28;19954;-41
2022/03/01 07:08:13;;;;;;;;;;;-0.20;99.90;;;;;;5093193;28;19908;-41
2022/03/01 07:10:40;;;;;;;;;;;-0.20;99.90;;;;;;5092060;28;19915;-40
2022/03/01 07:13:07;;;;;;;;;;;0.00;99.90;;;;;;5093374;28;19908;-41
2022/03/01 07:15:33;;;;;;;;;;;-0.10;99.90;;;;;;5093650;28;19915;-40
2022/03/01 07:17:59;;;;;;;;;;;-0.10;99.90;;;;;;5092860;28;19912;-41
2022/03/01 07:20:25;;;;;;;;;;;-0.10;99.90;;;;;;5088595;28;19912;-42
2022/03/01 07:22:50;;;;;;;;;;;0.10;99.90;;;;;;5088715;28;19912;-44
2022/03/01 07:25:16;;;;;;;;;;;0.30;99.90;;;;;;5089898;28;19916;-42
2022/03/01 07:27:49;;;;;;;;;;;0.40;99.90;;;;;;5080549;28;19912;-45
2022/03/01 07:30:15;;;;;;;;;;;0.50;99.90;;;;;;5091351;28;19916;-40
2022/03/01 07:32:41;;;;;;;;;;;0.30;99.90;;;;;;5092936;28;19916;-42
2022/03/01 07:35:07;;;;;;;;;;;0.50;99.90;;;;;;5092267;28;19913;-43
2022/03/01 07:37:34;;;;;;;;;;;0.60;99.90;;;;;;5092977;28;19916;-46
2022/03/01 07:40:00;;;;;;;;;;;0.60;99.90;;;;;;5083992;28;19912;-42
2022/03/01 07:42:26;;;;;;;;;;;0.70;99.90;;;;;;5077163;28;19920;-44
2022/03/01 07:44:51;;;;;;;;;;;0.90;99.90;;;;;;5087973;28;20391;-42
2022/03/01 07:47:17;;;;;;;;;;;1.10;99.90;;;;;;5094261;28;20290;-47
2022/03/01 07:49:43;;;;;;;;;;;1.20;99.90;;;;;;5094124;28;19920;-44
2022/03/01 07:52:09;;;;;;;;;;;1.30;99.90;;;;;;5095078;28;20546;-44
2022/03/01 07:54:35;;;;;;;;;;;1.30;99.90;;;;;;5103786;28;20278;-40
2022/03/01 07:57:00;;;;;;;;;;;1.30;99.90;;;;;;5115575;28;19919;-42
2022/03/01 07:59:26;;;;;;;;;;;1.50;99.90;;;;;;5112357;28;20392;-43
2022/03/01 08:01:51;;;;;;;;;;;1.60;99.90;;;;;;5097645;28;19923;-43
2022/03/01 08:04:17;;;;;;;;;;;1.60;99.90;;;;;;5089411;28;19926;-42
2022/03/01 08:06:43;;;;;;;;;;;1.70;99.90;;;;;;5085257;28;19919;-45
2022/03/01 08:09:08;;;;;;;;;;;1.80;99.90;;;;;;5106657;28;19908;-40
2022/03/01 08:11:34;;;;;;;;;;;2.10;99.90;;;;;;5116729;28;19911;-42
2022/03/01 08:13:59;;;;;;;;;;;2.20;99.90;;;;;;5099845;28;20313;-40
2022/03/01 08:16:25;;;;;;;;;;;2.30;99.90;;;;;;5094521;28;20362;-40
2022/03/01 08:18:51;;;;;;;;;;;2.30;99.90;;;;;;5077328;28;19924;-42
2022/03/01 08:21:16;;;;;;;;;;;2.40;99.90;;;;;;5076655;28;20373;-41
2022/03/01 08:23:42;;;;;;;;;;;2.60;99.90;;;;;;5075923;28;19915;-43
2022/03/01 08:26:08;;;;;;;;;;;2.70;99.90;;;;;;5076086;28;19909;-41
2022/03/01 08:28:33;;;;;;;;;;;2.70;99.90;;;;;;5094669;28;19980;-41
2022/03/01 08:30:59;;;;;;;;;;;2.70;99.90;;;;;;5096447;28;19955;-42
2022/03/01 08:33:24;;;;;;;;;;;2.90;99.90;;;;;;5096778;28;20325;-41
2022/03/01 08:35:50;;;;;;;;;;;3.00;99.90;;;;;;5100897;28;19939;-45
2022/03/01 08:38:16;;;;;;;;;;;3.10;99.90;;;;;;5095152;28;19912;-48
2022/03/01 08:40:42;;;;;;;;;;;3.20;99.90;;;;;;5083337;28;19912;-44
2022/03/01 08:43:09;;;;;;;;;;;3.40;99.90;;;;;;5089906;28;19919;-44
2022/03/01 08:45:34;;;;;;;;;;;3.60;99.90;;;;;;5092734;28;19912;-41
2022/03/01 08:48:00;;;;;;;;;;;3.60;99.30;;;;;;5096075;28;19934;-45
2022/03/01 08:50:25;;;;;;;;;;;3.20;98.30;;;;;;5088489;28;19913;-45
2022/03/01 08:52:51;;;;;;;;;;;3.40;99.90;;;;;;5076301;28;19916;-45
2022/03/01 08:55:17;;;;;;;;;;;3.60;99.90;;;;;;5075123;28;19912;-45
2022/03/01 08:57:42;;;;;;;;;;;3.60;97.20;;;;;;5078792;28;20008;-46
2022/03/01 09:00:09;;;;;;;;;;;3.40;97.20;;;;;;5089886;28;20409;-47
2022/03/01 09:02:35;;;;;;;;;;;3.40;97.40;;;;;;5079654;28;19922;-45
2022/03/01 09:05:01;;;;;;;;;;;3.20;97.60;;;;;;5089914;28;19912;-42
2022/03/01 09:07:26;;;;;;;;;;;3.30;96.00;;;;;;5080708;28;19912;-43
2022/03/01 09:09:52;;;;;;;;;;;3.50;97.30;;;;;;5104004;28;20367;-42
2022/03/01 09:12:17;;;;;;;;;;;3.70;96.60;;;;;;5115846;28;19907;-42
2022/03/01 09:14:43;;;;;;;;;;;3.40;97.20;;;;;;5102146;28;19912;-42
2022/03/01 09:17:09;;;;;;;;;;;3.20;96.30;;;;;;5078282;28;19917;-42
2022/03/01 09:19:34;;;;;;;;;;;3.70;97.30;;;;;;5077196;28;19974;-42
2022/03/01 09:22:00;;;;;;;;;;;3.30;96.40;;;;;;5087294;28;20006;-42
2022/03/01 09:24:25;;;;;;;;;;;2.90;95.50;;;;;;5087106;28;19919;-42
2022/03/01 09:26:51;;;;;;;;;;;3.20;96.00;;;;;;5092611;28;19974;-41
2022/03/01 09:29:16;;;;;;;;;;;3.50;96.20;;;;;;5084676;28;20301;-42
2022/03/01 09:31:42;;;;;;;;;;;3.70;96.50;;;;;;5092190;28;19908;-42
2022/03/01 09:34:07;;;;;;;;;;;3.20;95.50;;;;;;5094743;28;20258;-42
2022/03/01 09:36:33;;;;;;;;;;;3.30;96.00;;;;;;5094913;28;19913;-42
2022/03/01 09:38:58;;;;;;;;;;;3.10;94.90;;;;;;5094655;28;20362;-48
2022/03/01 09:41:24;;;;;;;;;;;3.00;95.40;;;;;;5093469;28;19908;-42
2022/03/01 09:43:52;;;;;;;;;;;3.10;95.00;;;;;;5091612;28;20066;-41
2022/03/01 09:46:18;;;;;;;;;;;3.30;95.70;;;;;;5088668;28;19958;-42
2022/03/01 09:48:43;;;;;;;;;;;3.30;95.20;;;;;;5092472;28;19908;-42
2022/03/01 09:51:09;;;;;;;;;;;3.60;95.50;;;;;;5093453;28;19992;-41
2022/03/01 09:53:35;;;;;;;;;;;3.90;94.50;;;;;;5094478;28;19919;-42
2022/03/01 09:56:02;;;;;;;;;;;4.10;95.50;;;;;;5094542;28;19912;-41
2022/03/01 09:58:28;;;;;;;;;;;4.60;95.40;;;;;;5094722;28;19919;-41
2022/03/01 10:00:54;;;;;;;;;;;4.50;94.30;;;;;;5094726;28;19908;-42
2022/03/01 10:03:20;;;;;;;;;;;4.40;94.50;;;;;;5094445;28;19908;-41
2022/03/01 10:05:46;;;;;;;;;;;4.40;95.20;;;;;;5099564;28;20290;-41
2022/03/01 10:08:11;;;;;;;;;;;4.60;94.30;;;;;;5090962;28;19908;-42
2022/03/01 10:10:43;;;;;;;;;;;4.80;94.80;;;;;;5093623;28;19909;-41
2022/03/01 10:13:09;;;;;;;;;;;5.00;95.10;;;;;;5092365;28;19912;-41
2022/03/01 10:15:35;;;;;;;;;;;5.00;93.60;;;;;;5092332;28;19942;-41
2022/03/01 10:18:14;;;;;;;;;;;5.20;93.00;;;;;;5091737;28;19918;-42
2022/03/01 10:20:41;;;;;;;;;;;5.40;94.80;;;;;;5093745;28;20380;-41
2022/03/01 10:23:08;;;;;;;;;;;5.50;93.40;;;;;;5094106;28;19908;-41
2022/03/01 10:25:35;;;;;;;;;;;5.30;92.20;;;;;;5094326;28;20350;-42
2022/03/01 10:28:01;;;;;;;;;;;5.30;92.10;;;;;;5094272;28;19920;-41
2022/03/01 10:30:28;;;;;;;;;;;5.10;91.90;;;;;;5093855;28;19908;-41
2022/03/01 10:33:02;;;;;;;;;;;5.10;92.20;;;;;;5094195;28;19955;-41
2022/03/01 10:35:28;;;;;;;;;;;5.30;91.80;;;;;;5093561;28;19908;-42
2022/03/01 10:37:53;;;;;;;;;;;5.60;92.80;;;;;;5093896;28;19935;-41
2022/03/01 10:40:20;;;;;;;;;;;5.90;91.60;;;;;;5093633;28;19999;-41
2022/03/01 10:42:58;;;;;;;;;;;6.10;93.40;;;;;;5093953;28;20346;-42
2022/03/01 10:45:29;;;;;;;;;;;6.20;90.90;;;;;;5089220;28;20003;-42
2022/03/01 10:47:55;;;;;;;;;;;6.20;91.00;;;;;;5093181;28;19916;-42
2022/03/01 10:50:22;;;;;;;;;;;6.60;93.10;;;;;;5089224;28;20358;-42
2022/03/01 10:52:48;;;;;;;;;;;6.90;91.90;;;;;;5089795;28;19908;-41
2022/03/01 10:55:24;;;;;;;;;;;6.90;91.00;;;;;;5088924;28;19935;-41
2022/03/01 10:58:06;;;;;;;;;;;7.20;90.30;;;;;;5083527;28;19923;-41
2022/03/01 11:00:32;;;;;;;;;;;6.50;89.00;;;;;;5092635;28;19915;-41
2022/03/01 11:02:58;;;;;;;;;;;6.00;89.40;;;;;;5092611;28;19908;-41
2022/03/01 11:05:25;;;;;;;;;;;6.20;90.40;;;;;;5093226;28;19908;-41
2022/03/01 11:07:51;;;;;;;;;;;6.20;90.10;;;;;;5093313;28;19912;-41
2022/03/01 11:10:18;;;;;;;;;;;6.10;88.70;;;;;;5093673;28;19908;-41
2022/03/01 11:12:46;;;;;;;;;;;6.10;87.30;;;;;;5093709;28;19955;-41
2022/03/01 11:15:11;;;;;;;;;;;6.50;87.50;;;;;;5093067;28;19999;-41
2022/03/01 11:17:40;;;;;;;;;;;6.50;86.00;;;;;;5088934;28;20010;-41
2022/03/01 11:20:11;;;;;;;;;;;6.60;83.90;;;;;;5089073;28;20446;-41
2022/03/01 11:22:55;;;;;;;;;;;6.70;83.80;;;;;;5084695;28;19908;-41
2022/03/01 11:25:23;;;;;;;;;;;6.70;85.40;;;;;;5097404;28;20345;-42
2022/03/01 11:27:49;;;;;;;;;;;7.10;85.00;;;;;;5092053;28;19928;-41
2022/03/01 11:30:16;;;;;;;;;;;7.00;80.10;;;;;;5097058;28;19950;-41
2022/03/01 11:32:43;;;;;;;;;;;7.10;84.20;;;;;;5096425;28;20377;-41
2022/03/01 11:35:16;;;;;;;;;;;7.30;88.60;;;;;;5096900;28;19916;-41
2022/03/01 11:37:43;;;;;;;;;;;7.30;84.30;;;;;;5096948;28;19959;-42
2022/03/01 11:40:19;;;;;;;;;;;7.30;80.80;;;;;;5095829;28;19915;-41
2022/03/01 11:42:48;;;;;;;;;;;7.40;79.80;;;;;;5097270;28;19966;-41
2022/03/01 11:45:13;;;;;;;;;;;7.30;78.60;;;;;;5096753;28;19908;-41
2022/03/01 11:47:39;;;;;;;;;;;6.90;72.80;;;;;;5096581;28;20313;-41
2022/03/01 11:50:19;;;;;;;;;;;7.10;81.00;;;;;;5096861;28;19912;-41
2022/03/01 11:52:56;;;;;;;;;;;7.50;85.10;;;;;;5096985;28;19912;-41
2022/03/01 11:55:22;;;;;;;;;;;7.90;83.40;;;;;;5096822;28;19916;-41
2022/03/01 11:57:49;;;;;;;;;;;8.00;81.20;;;;;;5096249;28;19949;-41
2022/03/01 12:00:18;;;;;;;;;;;8.10;78.60;;;;;;5096527;28;20269;-40
2022/03/01 12:02:45;;;;;;;;;;;8.30;81.20;;;;;;5096739;28;20007;-40
2022/03/01 12:05:19;;;;;;;;;;;8.30;80.50;;;;;;5096460;28;19939;-41
2022/03/01 12:07:44;;;;;;;;;;;8.10;79.70;;;;;;5096121;28;20371;-41
2022/03/01 12:10:18;;;;;;;;;;;7.80;75.20;;;;;;5092043;28;19919;-41
2022/03/01 12:12:44;;;;;;;;;;;7.80;74.60;;;;;;5096599;28;20266;-42
2022/03/01 12:15:12;;;;;;;;;;;7.20;72.90;;;;;;5095923;28;19908;-41
2022/03/01 12:17:43;;;;;;;;;;;7.10;73.20;;;;;;5095911;28;19916;-42
2022/03/01 12:20:10;;;;;;;;;;;6.80;74.00;;;;;;5096090;28;19916;-42
2022/03/01 12:22:36;;;;;;;;;;;6.80;72.70;;;;;;5095596;28;19919;-41
2022/03/01 12:25:01;;;;;;;;;;;6.90;72.70;;;;;;5113765;28;20263;-41
2022/03/01 12:27:30;;;;;;;;;;;7.10;76.50;;;;;;5109555;28;20011;-42
2022/03/01 12:29:59;;;;;;;;;;;6.80;70.90;;;;;;5095843;28;20007;-41
2022/03/01 12:32:25;;;;;;;;;;;6.70;71.10;;;;;;5096247;28;19935;-42
2022/03/01 12:34:51;;;;;;;;;;;7.10;71.40;;;;;;5095981;28;20366;-40
2022/03/01 12:37:19;;;;;;;;;;;7.10;69.30;;;;;;5095442;28;19915;-41
2022/03/01 12:39:45;;;;;;;;;;;7.40;72.10;;;;;;5108936;28;19977;-41
2022/03/01 12:42:11;;;;;;;;;;;7.70;69.10;;;;;;5112758;28;19916;-41
2022/03/01 12:44:36;;;;;;;;;;;7.50;69.20;;;;;;5094978;28;19912;-41
2022/03/01 12:47:03;;;;;;;;;;;7.90;71.50;;;;;;5094964;28;20255;-41
2022/03/01 12:49:29;;;;;;;;;;;7.80;66.90;;;;;;5110534;28;19916;-40
2022/03/01 12:51:56;;;;;;;;;;;8.00;69.20;;;;;;5112087;28;19912;-41
2022/03/01 12:54:23;;;;;;;;;;;8.30;71.00;;;;;;5096280;28;20005;-41
2022/03/01 12:56:50;;;;;;;;;;;8.50;70.00;;;;;;5105124;28;19943;-42
2022/03/01 12:59:17;;;;;;;;;;;8.30;65.10;;;;;;5115808;28;19919;-42
2022/03/01 13:01:44;;;;;;;;;;;8.40;70.30;;;;;;5098896;28;19916;-41
2022/03/01 13:04:10;;;;;;;;;;;8.60;74.90;;;;;;5095606;28;19915;-41
2022/03/01 13:06:36;;;;;;;;;;;8.40;65.90;;;;;;5095324;28;19912;-41
2022/03/01 13:09:02;;;;;;;;;;;8.10;66.10;;;;;;5094395;28;20401;-42
2022/03/01 13:11:27;;;;;;;;;;;7.70;63.70;;;;;;5094287;28;19912;-42
2022/03/01 13:13:56;;;;;;;;;;;7.80;64.40;;;;;;5080847;28;19958;-41
2022/03/01 13:16:25;;;;;;;;;;;8.10;66.20;;;;;;5095420;28;19964;-41
2022/03/01 13:18:52;;;;;;;;;;;8.20;63.70;;;;;;5093789;28;19967;-42
2022/03/01 13:21:31;;;;;;;;;;;8.30;65.60;;;;;;5094427;28;19915;-42
2022/03/01 13:23:57;;;;;;;;;;;8.60;73.80;;;;;;5109151;28;19923;-42
2022/03/01 13:26:24;;;;;;;;;;;8.60;65.90;;;;;;5094700;28;20370;-41
2022/03/01 13:28:49;;;;;;;;;;;8.60;70.50;;;;;;5094916;28;20381;-41
2022/03/01 13:31:22;;;;;;;;;;;8.30;64.70;;;;;;5096601;28;19916;-41
2022/03/01 13:33:51;;;;;;;;;;;8.20;64.70;;;;;;5107764;28;19912;-41
2022/03/01 13:36:16;;;;;;;;;;;8.00;63.40;;;;;;5115118;28;20326;-41
2022/03/01 13:38:42;;;;;;;;;;;7.70;63.50;;;;;;5114652;28;19996;-40
2022/03/01 13:41:08;;;;;;;;;;;7.80;64.90;;;;;;5102056;28;19908;-41
2022/03/01 13:43:34;;;;;;;;;;;8.10;65.00;;;;;;5114224;28;19907;-41
2022/03/01 13:46:01;;;;;;;;;;;7.90;63.10;;;;;;5114691;28;20002;-41
2022/03/01 13:48:27;;;;;;;;;;;8.10;66.40;;;;;;5093246;28;19919;-42
2022/03/01 13:50:59;;;;;;;;;;;8.20;65.70;;;;;;5099513;28;20282;-41
2022/03/01 13:53:25;;;;;;;;;;;8.10;64.50;;;;;;5114616;28;19916;-41
2022/03/01 13:55:53;;;;;;;;;;;8.00;63.00;;;;;;5115079;28;19922;-41
2022/03/01 13:58:20;;;;;;;;;;;8.10;62.20;;;;;;5114951;28;19912;-41
2022/03/01 14:00:47;;;;;;;;;;;8.10;65.30;;;;;;5113694;28;19956;-41
2022/03/01 14:03:12;;;;;;;;;;;7.90;65.60;;;;;;5104209;28;19912;-41
2022/03/01 14:05:41;;;;;;;;;;;8.10;64.50;;;;;;5104523;28;20011;-41
2022/03/01 14:08:11;;;;;;;;;;;8.20;63.70;;;;;;5097029;28;20288;-41
2022/03/01 14:10:40;;;;;;;;;;;8.00;64.30;;;;;;5112478;28;19931;-41
2022/03/01 14:13:07;;;;;;;;;;;8.00;64.90;;;;;;5113447;28;20407;-41
2022/03/01 14:15:37;;;;;;;;;;;8.10;67.70;;;;;;5111974;28;19907;-42
2022/03/01 14:18:03;;;;;;;;;;;8.30;63.60;;;;;;5093820;28;20366;-41